createdAt,value
2019-04-22T00:02:26.422Z,98.20
2019-04-22T00:05:07.264Z,98.30
2019-04-22T00:07:51.452Z,98.40
2019-04-22T00:10:30.921Z,98.40
2019-04-22T00:12:52.928Z,98.40
2019-04-22T00:15:15.519Z,98.50
2019-04-22T00:20:22.606Z,98.60
2019-04-22T00:22:52.037Z,98.80
2019-04-22T00:25:26.659Z,98.90
2019-04-22T00:28:00.856Z,99.00
2019-04-22T00:30:22.050Z,99.10
2019-04-22T00:33:07.931Z,99.00
2019-04-22T00:35:35.514Z,99.00
2019-04-22T00:38:11.095Z,99.10
2019-04-22T00:40:39.326Z,99.00
2019-04-22T00:43:15.442Z,99.10
2019-04-22T00:48:18.831Z,99.20
2019-04-22T00:50:46.069Z,99.30
2019-04-22T00:53:16.327Z,99.30
2019-04-22T00:56:00.538Z,99.30
2019-04-22T00:58:31.179Z,99.40
2019-04-22T01:01:04.661Z,99.60
2019-04-22T01:03:34.276Z,99.70
2019-04-22T01:06:03.476Z,99.70
2019-04-22T01:08:39.091Z,99.80
2019-04-22T01:11:10.275Z,99.90
2019-04-22T01:13:34.365Z,99.90
2019-04-22T01:16:04.491Z,99.90
2019-04-22T01:18:27.949Z,99.90
2019-04-22T01:23:32.587Z,99.90
2019-04-22T01:25:56.971Z,99.90
2019-04-22T01:28:25.377Z,99.90
2019-04-22T01:30:51.019Z,99.90
2019-04-22T01:33:21.055Z,99.90
2019-04-22T01:36:06.296Z,99.90
2019-04-22T01:38:31.405Z,99.90
2019-04-22T01:41:16.398Z,99.90
2019-04-22T01:43:54.350Z,99.90
2019-04-22T01:46:13.831Z,99.90
2019-04-22T01:48:39.312Z,99.90
2019-04-22T01:51:07.597Z,99.90
2019-04-22T01:53:43.053Z,99.90
2019-04-22T01:56:13.561Z,99.90
2019-04-22T01:58:33.250Z,99.90
2019-04-22T02:01:14.702Z,99.90
2019-04-22T02:03:46.769Z,99.90
2019-04-22T02:06:13.681Z,99.90
2019-04-22T02:08:44.961Z,99.90
2019-04-22T02:11:20.742Z,99.90
2019-04-22T02:13:47.868Z,99.90
2019-04-22T02:16:14.225Z,99.90
2019-04-22T02:18:44.869Z,99.90
2019-04-22T02:21:09.373Z,99.90
2019-04-22T02:23:47.075Z,99.90
2019-04-22T02:26:15.614Z,99.90
2019-04-22T02:28:40.046Z,99.90
2019-04-22T02:31:25.973Z,99.90
2019-04-22T02:36:22.921Z,99.90
2019-04-22T02:46:49.615Z,99.90
2019-04-22T02:56:27.518Z,99.90
2019-04-22T02:59:08.468Z,99.90
2019-04-22T03:06:33.896Z,99.90
2019-04-22T03:18:57.115Z,99.90
2019-04-22T03:21:17.944Z,99.90
2019-04-22T03:31:57.915Z,99.90
2019-04-22T03:34:38.673Z,99.90
2019-04-22T03:39:20.345Z,99.90
2019-04-22T03:42:00.542Z,99.90
2019-04-22T03:44:18.795Z,99.90
2019-04-22T03:46:30.379Z,99.90
2019-04-22T03:49:14.786Z,99.90
2019-04-22T03:57:08.011Z,99.90
2019-04-22T03:59:08.762Z,99.90
2019-04-22T04:06:41.621Z,99.90
2019-04-22T04:09:11.963Z,99.90
2019-04-22T04:11:43.125Z,99.90
2019-04-22T04:14:12.024Z,99.90
2019-04-22T04:16:45.974Z,99.90
2019-04-22T04:19:21.192Z,99.90
2019-04-22T04:24:24.035Z,99.90
2019-04-22T04:27:03.295Z,99.90
2019-04-22T04:29:32.593Z,99.90
2019-04-22T04:31:41.306Z,99.90
2019-04-22T04:34:32.665Z,99.90
2019-04-22T04:36:34.112Z,99.90
2019-04-22T04:39:05.426Z,99.90
2019-04-22T04:41:42.023Z,99.90
2019-04-22T04:51:37.682Z,99.90
2019-04-22T04:54:26.241Z,99.90
2019-04-22T04:56:46.954Z,99.90
2019-04-22T05:06:42.968Z,99.90
2019-04-22T05:09:14.620Z,99.90
2019-04-22T05:11:50.272Z,99.90
2019-04-22T05:16:41.077Z,99.90
2019-04-22T05:19:07.510Z,99.90
2019-04-22T05:21:31.041Z,99.90
2019-04-22T05:24:15.009Z,99.90
2019-04-22T05:26:52.395Z,99.90
2019-04-22T05:29:06.620Z,99.90
2019-04-22T05:31:38.982Z,99.90
2019-04-22T05:34:04.392Z,99.90
2019-04-22T05:36:34.495Z,99.90
2019-04-22T05:39:06.009Z,99.90
2019-04-22T05:41:35.358Z,99.90
2019-04-22T05:44:02.835Z,99.90
2019-04-22T05:46:34.561Z,99.90
2019-04-22T05:49:07.152Z,99.90
2019-04-22T05:51:38.556Z,99.90
2019-04-22T05:54:13.100Z,99.90
2019-04-22T05:56:37.491Z,99.90
2019-04-22T05:59:03.797Z,99.90
2019-04-22T06:01:48.797Z,99.90
2019-04-22T06:04:11.403Z,99.90
2019-04-22T06:06:31.925Z,99.90
2019-04-22T06:09:03.964Z,99.90
2019-04-22T06:14:07.850Z,99.90
2019-04-22T06:16:44.260Z,99.90
2019-04-22T06:19:13.739Z,99.90
2019-04-22T06:21:44.694Z,99.90
2019-04-22T06:24:27.597Z,99.90
2019-04-22T06:26:53.528Z,99.90
2019-04-22T06:29:16.474Z,99.90
2019-04-22T06:34:17.726Z,99.90
2019-04-22T06:39:26.084Z,99.90
2019-04-22T06:41:49.902Z,99.90
2019-04-22T06:44:22.695Z,99.90
2019-04-22T06:46:49.107Z,99.90
2019-04-22T06:49:17.385Z,99.90
2019-04-22T06:51:46.813Z,99.90
2019-04-22T06:54:17.595Z,99.80
2019-04-22T06:56:50.665Z,99.30
2019-04-22T06:59:18.378Z,98.60
2019-04-22T07:01:49.996Z,97.90
2019-04-22T07:04:16.710Z,97.30
2019-04-22T07:06:49.905Z,96.50
2019-04-22T07:09:28.818Z,95.80
2019-04-22T07:11:43.300Z,95.20
2019-04-22T07:14:32.024Z,94.50
2019-04-22T07:16:54.499Z,94.00
2019-04-22T07:19:26.568Z,93.50
2019-04-22T07:21:55.341Z,92.90
2019-04-22T07:26:51.125Z,91.70
2019-04-22T07:29:21.798Z,90.60
2019-04-22T07:31:49.874Z,89.60
2019-04-22T07:34:33.276Z,88.40
2019-04-22T07:39:23.122Z,86.30
2019-04-22T07:41:51.405Z,85.70
2019-04-22T07:47:00.898Z,83.40
2019-04-22T07:49:26.679Z,82.50
2019-04-22T07:51:49.588Z,81.10
2019-04-22T07:54:24.414Z,80.00
2019-04-22T07:56:54.969Z,77.00
2019-04-22T07:59:24.483Z,75.90
2019-04-22T08:01:53.707Z,75.30
2019-04-22T08:04:45.652Z,74.40
2019-04-22T08:14:24.746Z,70.70
2019-04-22T08:17:01.042Z,69.00
2019-04-22T08:19:29.578Z,67.80
2019-04-22T08:21:52.144Z,66.70
2019-04-22T08:24:22.398Z,65.90
2019-04-22T08:26:53.087Z,65.90
2019-04-22T08:29:25.420Z,64.60
2019-04-22T08:31:58.042Z,64.00
2019-04-22T08:39:25.510Z,62.60
2019-04-22T08:41:49.413Z,62.40
2019-04-22T08:44:49.636Z,62.00
2019-04-22T08:46:57.897Z,61.00
2019-04-22T08:49:21.782Z,60.60
2019-04-22T08:51:58.830Z,60.00
2019-04-22T08:54:24.526Z,59.30
2019-04-22T08:56:56.874Z,58.50
2019-04-22T08:59:22.140Z,58.00
2019-04-22T09:01:59.647Z,57.40
2019-04-22T09:04:22.841Z,57.20
2019-04-22T09:07:12.509Z,56.80
2019-04-22T09:09:27.038Z,56.50
2019-04-22T09:12:14.318Z,56.30
2019-04-22T09:14:32.497Z,55.90
2019-04-22T09:16:58.095Z,55.10
2019-04-22T09:19:40.527Z,54.40
2019-04-22T09:22:00.527Z,53.40
2019-04-22T09:24:30.353Z,52.90
2019-04-22T09:26:58.766Z,52.90
2019-04-22T09:29:36.781Z,52.20
2019-04-22T09:32:09.422Z,51.20
2019-04-22T09:34:27.754Z,50.50
2019-04-22T09:37:08.183Z,50.10
2019-04-22T09:42:02.522Z,49.20
2019-04-22T09:44:38.949Z,48.30
2019-04-22T09:46:59.940Z,47.70
2019-04-22T09:49:43.313Z,48.10
2019-04-22T09:52:04.633Z,48.30
2019-04-22T09:54:39.953Z,47.50
2019-04-22T09:57:01.830Z,46.60
2019-04-22T09:59:35.300Z,46.40
2019-04-22T10:04:33.008Z,44.80
2019-04-22T10:07:04.306Z,43.50
2019-04-22T10:09:53.123Z,43.40
2019-04-22T10:12:02.661Z,43.70
2019-04-22T10:14:40.895Z,43.00
2019-04-22T10:17:21.859Z,43.10
2019-04-22T10:19:35.850Z,43.30
2019-04-22T10:22:08.524Z,43.00
2019-04-22T10:24:31.941Z,42.80
2019-04-22T10:27:07.753Z,41.60
2019-04-22T10:29:43.448Z,40.80
2019-04-22T10:32:08.440Z,40.60
2019-04-22T10:34:26.320Z,41.10
2019-04-22T10:36:45.194Z,41.20
2019-04-22T10:39:12.731Z,40.10
2019-04-22T10:41:41.235Z,40.10
2019-04-22T10:44:10.932Z,40.40
2019-04-22T10:46:40.221Z,40.30
2019-04-22T10:49:08.676Z,40.60
2019-04-22T10:51:37.110Z,39.90
2019-04-22T10:54:05.695Z,39.60
2019-04-22T10:56:34.850Z,38.80
2019-04-22T10:59:04.715Z,39.30
2019-04-22T11:01:33.866Z,38.90
2019-04-22T11:04:03.355Z,38.50
2019-04-22T11:06:33.686Z,38.60
2019-04-22T11:09:04.960Z,38.90
2019-04-22T11:11:44.475Z,39.50
2019-04-22T11:14:04.119Z,39.30
2019-04-22T11:16:32.878Z,39.40
2019-04-22T11:19:01.464Z,39.50
2019-04-22T11:21:30.028Z,39.10
2019-04-22T11:23:58.720Z,38.80
2019-04-22T11:26:28.261Z,38.30
2019-04-22T11:28:56.874Z,37.90
2019-04-22T11:31:26.448Z,37.70
2019-04-22T11:33:56.499Z,38.00
2019-04-22T11:36:28.651Z,37.80
2019-04-22T11:39:00.327Z,38.10
2019-04-22T11:41:25.926Z,38.50
2019-04-22T11:43:54.343Z,38.50
2019-04-22T11:46:23.145Z,37.80
2019-04-22T11:48:51.980Z,37.80
2019-04-22T11:51:22.026Z,37.70
2019-04-22T11:53:52.401Z,37.60
2019-04-22T11:56:20.953Z,37.90
2019-04-22T11:58:50.715Z,38.10
2019-04-22T12:01:20.709Z,38.10
2019-04-22T12:03:49.683Z,38.10
2019-04-22T12:06:18.150Z,37.60
2019-04-22T12:08:47.767Z,37.40
2019-04-22T12:11:16.705Z,37.70
2019-04-22T12:13:46.354Z,37.70
2019-04-22T12:16:17.014Z,38.00
2019-04-22T12:18:47.122Z,37.90
2019-04-22T12:21:17.074Z,37.50
2019-04-22T12:23:45.642Z,37.70
2019-04-22T12:26:18.872Z,38.10
2019-04-22T12:28:44.922Z,37.20
2019-04-22T12:31:13.642Z,37.20
2019-04-22T12:33:43.310Z,37.20
2019-04-22T12:36:12.776Z,36.20
2019-04-22T12:38:41.833Z,35.30
2019-04-22T12:41:12.118Z,34.70
2019-04-22T12:43:40.994Z,34.60
2019-04-22T12:46:10.219Z,34.20
2019-04-22T12:48:39.283Z,33.90
2019-04-22T12:51:09.077Z,33.90
2019-04-22T12:53:40.443Z,32.80
2019-04-22T12:56:09.187Z,33.00
2019-04-22T12:58:38.088Z,32.50
2019-04-22T13:01:06.836Z,31.90
2019-04-22T13:03:36.113Z,32.00
2019-04-22T13:06:05.930Z,31.40
2019-04-22T13:08:35.742Z,30.90
2019-04-22T13:11:10.367Z,31.10
2019-04-22T13:13:34.689Z,30.80
2019-04-22T13:16:04.621Z,31.40
2019-04-22T13:18:39.998Z,30.00
2019-04-22T13:21:04.606Z,30.10
2019-04-22T13:23:34.055Z,30.00
2019-04-22T13:26:03.051Z,30.40
2019-04-22T13:28:31.552Z,29.90
2019-04-22T13:31:01.929Z,29.50
2019-04-22T13:33:30.616Z,29.10
2019-04-22T13:35:59.613Z,28.60
2019-04-22T13:38:29.076Z,28.70
2019-04-22T13:41:07.247Z,28.90
2019-04-22T13:43:29.079Z,29.50
2019-04-22T13:45:58.396Z,29.20
2019-04-22T13:48:46.907Z,29.60
2019-04-22T13:56:22.199Z,31.20
2019-04-22T13:58:43.140Z,31.30
2019-04-22T14:01:00.731Z,31.20
2019-04-22T14:03:56.491Z,31.40
2019-04-22T14:06:25.136Z,30.90
2019-04-22T14:08:53.549Z,30.40
2019-04-22T14:11:34.478Z,30.20
2019-04-22T14:13:52.330Z,30.10
2019-04-22T14:16:20.726Z,30.50
2019-04-22T14:18:49.762Z,30.90
2019-04-22T14:21:18.810Z,31.60
2019-04-22T14:23:48.421Z,31.40
2019-04-22T14:26:17.584Z,31.50
2019-04-22T14:28:46.022Z,31.20
2019-04-22T14:31:14.847Z,31.30
2019-04-22T14:33:46.555Z,32.00
2019-04-22T14:36:15.123Z,32.20
2019-04-22T14:38:43.943Z,32.50
2019-04-22T14:41:34.362Z,32.90
2019-04-22T14:44:47.166Z,33.10
2019-04-22T14:46:47.803Z,32.80
2019-04-22T14:49:02.678Z,32.70
2019-04-22T14:51:32.915Z,32.90
2019-04-22T14:54:01.420Z,33.10
2019-04-22T14:56:13.767Z,32.60
2019-04-22T14:58:42.723Z,32.80
2019-04-22T15:01:12.878Z,32.90
2019-04-22T15:03:44.034Z,32.50
2019-04-22T15:06:12.618Z,32.50
2019-04-22T15:08:42.592Z,31.90
2019-04-22T15:11:11.137Z,31.80
2019-04-22T15:13:41.116Z,32.00
2019-04-22T15:16:11.870Z,31.60
2019-04-22T15:18:42.261Z,31.80
2019-04-22T15:21:12.363Z,31.70
2019-04-22T15:23:42.436Z,31.50
2019-04-22T15:26:10.997Z,31.60
2019-04-22T15:28:39.634Z,32.00
2019-04-22T15:31:09.132Z,31.70
2019-04-22T15:33:39.241Z,31.50
2019-04-22T15:36:08.135Z,31.50
2019-04-22T15:38:36.640Z,31.20
2019-04-22T15:41:06.858Z,31.10
2019-04-22T15:43:37.037Z,30.80
2019-04-22T15:46:05.826Z,30.60
2019-04-22T15:48:35.625Z,29.80
2019-04-22T15:51:04.943Z,29.60
2019-04-22T15:53:33.765Z,29.50
2019-04-22T15:56:03.056Z,29.00
2019-04-22T15:58:31.551Z,29.10
2019-04-22T16:01:11.978Z,29.20
2019-04-22T16:03:30.128Z,29.50
2019-04-22T16:05:59.706Z,29.50
2019-04-22T16:08:29.345Z,29.70
2019-04-22T16:10:59.863Z,29.10
2019-04-22T16:13:32.029Z,29.20
2019-04-22T16:15:58.725Z,29.40
2019-04-22T16:18:28.422Z,29.30
2019-04-22T16:20:58.686Z,29.80
2019-04-22T16:23:44.671Z,29.90
2019-04-22T16:26:15.324Z,30.10
2019-04-22T16:28:45.165Z,30.50
2019-04-22T16:31:13.747Z,30.90
2019-04-22T16:33:45.646Z,31.00
2019-04-22T16:36:13.150Z,30.70
2019-04-22T16:38:42.798Z,31.20
2019-04-22T16:41:12.696Z,31.70
2019-04-22T16:43:42.717Z,32.10
2019-04-22T16:46:11.703Z,32.60
2019-04-22T16:48:40.181Z,32.90
2019-04-22T16:51:09.897Z,33.00
2019-04-22T16:53:38.983Z,33.00
2019-04-22T16:56:08.822Z,32.70
2019-04-22T16:58:38.744Z,32.70
2019-04-22T17:01:10.251Z,32.90
2019-04-22T17:03:56.758Z,33.10
2019-04-22T17:06:27.648Z,33.00
2019-04-22T17:08:57.131Z,33.30
2019-04-22T17:11:25.767Z,37.00
2019-04-22T17:13:55.177Z,33.70
2019-04-22T17:16:24.381Z,34.00
2019-04-22T17:18:54.222Z,33.70
2019-04-22T17:21:23.638Z,33.80
2019-04-22T17:23:53.837Z,34.10
2019-04-22T17:26:22.398Z,34.20
2019-04-22T17:28:51.382Z,34.40
2019-04-22T17:31:20.585Z,34.60
2019-04-22T17:33:49.085Z,34.90
2019-04-22T17:36:18.302Z,35.00
2019-04-22T17:38:55.071Z,35.00
2019-04-22T17:41:30.229Z,35.20
2019-04-22T17:44:15.326Z,35.20
2019-04-22T17:46:40.402Z,35.10
2019-04-22T17:49:37.343Z,35.40
2019-04-22T17:54:47.841Z,36.20
2019-04-22T17:57:21.577Z,36.60
2019-04-22T17:59:46.944Z,37.10
2019-04-22T18:02:15.588Z,38.30
2019-04-22T18:04:40.229Z,37.60
2019-04-22T18:07:23.407Z,37.70
2019-04-22T18:10:16.140Z,38.40
2019-04-22T18:12:27.150Z,38.70
2019-04-22T18:14:54.691Z,38.80
2019-04-22T18:17:25.419Z,39.70
2019-04-22T18:19:50.836Z,40.50
2019-04-22T18:22:16.177Z,40.40
2019-04-22T18:24:49.318Z,40.50
2019-04-22T18:27:34.722Z,40.80
2019-04-22T18:29:49.503Z,41.10
2019-04-22T18:32:10.015Z,41.20
2019-04-22T18:34:47.037Z,41.60
2019-04-22T18:37:18.139Z,41.80
2019-04-22T18:39:54.163Z,45.10
2019-04-22T18:42:16.880Z,42.50
2019-04-22T18:45:10.895Z,42.70
2019-04-22T18:47:18.793Z,42.90
2019-04-22T18:49:49.242Z,43.10
2019-04-22T18:52:28.142Z,43.40
2019-04-22T18:55:07.197Z,43.70
2019-04-22T18:57:52.121Z,44.00
2019-04-22T19:00:12.691Z,44.30
2019-04-22T19:02:50.967Z,44.70
2019-04-22T19:05:27.914Z,45.10
2019-04-22T19:08:12.651Z,45.70
2019-04-22T19:10:50.044Z,46.30
2019-04-22T19:13:34.815Z,46.90
2019-04-22T19:15:40.894Z,47.60
2019-04-22T19:18:10.745Z,48.30
2019-04-22T19:20:42.866Z,48.90
2019-04-22T19:23:12.882Z,49.60
2019-04-22T19:25:33.278Z,50.30
2019-04-22T19:28:18.961Z,51.00
2019-04-22T19:30:41.537Z,51.50
2019-04-22T19:33:11.237Z,52.10
2019-04-22T19:35:34.902Z,52.70
2019-04-22T19:38:03.382Z,53.30
2019-04-22T19:40:55.547Z,53.80
2019-04-22T19:43:15.488Z,54.40
2019-04-22T19:45:44.375Z,55.60
2019-04-22T19:48:23.371Z,55.50
2019-04-22T19:50:54.422Z,56.00
2019-04-22T19:53:19.372Z,56.50
2019-04-22T19:55:46.509Z,57.00
2019-04-22T19:58:17.752Z,57.60
2019-04-22T20:00:49.459Z,58.30
2019-04-22T20:03:49.771Z,58.30
2019-04-22T20:06:01.327Z,58.20
2019-04-22T20:08:31.647Z,58.10
2019-04-22T20:11:03.682Z,58.30
2019-04-22T20:13:38.000Z,58.60
2019-04-22T20:15:53.461Z,59.00
2019-04-22T20:21:04.209Z,59.80
2019-04-22T20:23:26.802Z,60.30
2019-04-22T20:25:58.825Z,60.50
2019-04-22T20:28:32.298Z,60.50
2019-04-22T20:31:06.763Z,60.80
2019-04-22T20:33:43.055Z,61.20
2019-04-22T20:36:03.830Z,61.30
2019-04-22T20:38:30.711Z,61.30
2019-04-22T20:40:58.603Z,61.30
2019-04-22T20:43:44.760Z,61.00
2019-04-22T20:46:05.880Z,61.00
2019-04-22T20:48:40.454Z,60.90
2019-04-22T20:51:09.954Z,60.70
2019-04-22T20:53:36.198Z,60.60
2019-04-22T20:56:06.815Z,60.80
2019-04-22T20:58:33.010Z,61.30
2019-04-22T21:00:57.333Z,61.90
2019-04-22T21:03:26.646Z,62.40
2019-04-22T21:05:54.693Z,62.70
2019-04-22T21:08:38.531Z,62.80
2019-04-22T21:10:57.899Z,62.80
2019-04-22T21:13:28.748Z,62.60
2019-04-22T21:16:08.976Z,62.80
2019-04-22T21:18:33.301Z,62.80
2019-04-22T21:21:09.200Z,62.80
2019-04-22T21:23:29.717Z,62.60
2019-04-22T21:26:02.285Z,62.50
2019-04-22T21:28:38.834Z,62.50
2019-04-22T21:31:05.750Z,62.50
2019-04-22T21:33:36.609Z,62.60
2019-04-22T21:36:28.338Z,62.90
2019-04-22T21:38:42.411Z,63.20
2019-04-22T21:41:06.514Z,63.20
2019-04-22T21:43:38.537Z,63.40
2019-04-22T21:46:08.786Z,63.60
2019-04-22T21:48:57.969Z,63.30
2019-04-22T21:51:16.246Z,63.00
2019-04-22T21:53:43.351Z,62.80
2019-04-22T21:56:23.968Z,63.00
2019-04-22T21:58:57.342Z,63.30
2019-04-22T22:01:37.558Z,63.50
2019-04-22T22:04:03.089Z,63.30
2019-04-22T22:06:20.100Z,63.40
2019-04-22T22:09:02.449Z,63.30
2019-04-22T22:11:27.842Z,63.20
2019-04-22T22:13:55.318Z,63.20
2019-04-22T22:16:22.958Z,63.20
2019-04-22T22:19:00.904Z,63.50
2019-04-22T22:24:06.102Z,64.10
2019-04-22T22:26:35.106Z,64.20
2019-04-22T22:29:05.334Z,64.70
2019-04-22T22:31:38.165Z,65.10
2019-04-22T22:34:03.332Z,65.30
2019-04-22T22:36:23.639Z,65.80
2019-04-22T22:38:51.667Z,66.10
2019-04-22T22:41:11.825Z,66.40
2019-04-22T22:43:45.353Z,66.90
2019-04-22T22:46:22.804Z,67.40
2019-04-22T22:49:08.162Z,68.00
2019-04-22T22:51:43.117Z,68.10
2019-04-22T22:54:03.838Z,68.40
2019-04-22T22:56:39.742Z,68.60
2019-04-22T22:58:58.648Z,68.70
2019-04-22T23:01:37.396Z,68.90
2019-04-22T23:04:05.682Z,69.30
2019-04-22T23:06:40.683Z,69.20
2019-04-22T23:09:05.693Z,69.40
2019-04-22T23:11:52.548Z,69.70
2019-04-22T23:14:03.932Z,70.00
2019-04-22T23:16:22.090Z,70.10
2019-04-22T23:18:59.899Z,70.50
2019-04-22T23:21:36.611Z,70.60
2019-04-22T23:24:20.379Z,70.60
2019-04-22T23:26:45.653Z,70.60
2019-04-22T23:29:26.241Z,70.80
2019-04-22T23:32:00.662Z,70.90
2019-04-22T23:34:24.970Z,71.00
2019-04-22T23:37:05.347Z,71.00
2019-04-22T23:39:51.527Z,71.10
2019-04-22T23:42:15.949Z,71.30
2019-04-22T23:44:42.347Z,71.40
2019-04-22T23:47:07.262Z,71.80
2019-04-22T23:49:32.613Z,72.00
2019-04-22T23:52:14.718Z,72.40
2019-04-22T23:54:49.675Z,72.50
2019-04-22T23:57:09.337Z,72.50
